NEOK1: Neosho R at Neosho Rapids, KS

                                SHEF ID:       NEOK1     NEOSHO R AT NEOSHO RAPIDS, KS
STATION TYPE:

STAGE RIV-FLOW BAT-LOAD
ft cfs volt
Ccp-Rev Ccp-Rev Ccp-Rev
(America/Chicago)
02/12 00:00 4.54 1920 12.37
02/12 01:00 4.54 1920 12.35
02/12 02:00 4.54 1920 12.32
02/12 03:00 4.54 1920 12.30
02/12 04:00 4.55 1926 12.26
02/12 05:00 4.56 1932 12.23
02/12 06:00 4.58 1944 12.19
02/12 07:00 4.60 1956 12.18
02/12 08:00 4.62 1968 12.18
02/12 09:00 4.65 1986 12.35
02/12 10:00 4.68 2004 ----
02/12 11:00 4.72 2028 13.25
02/12 12:00 4.77 2058 13.13
02/12 13:00 4.81 2082 13.01
02/12 14:00 4.85 2107 13.01
02/12 15:00 4.90 2138 12.94
02/12 16:00 4.94 2162 12.90
02/12 17:00 4.99 2193 12.78
02/12 18:00 5.04 2224 12.70
02/12 19:00 5.08 2249 12.55
02/12 20:00 5.13 2280 12.51
02/12 21:00 5.18 2311 12.48
02/12 22:00 5.22 2336 12.46
02/12 23:00 5.26 2362 12.42
Data processed at Fri 13Feb2026 05:36 GMT

NOTICE: If you are parsing this page

Please convert to using our Data API. Starting early 2026 we will be migrating to: https://water.usace.army.mil with modern pages rendered in JavaScript. When this migration completes you will no longer be able to scrape this page! CWMSDataAPI (CDA)

Timeseries IDs (TSIDs)

TSIDs used from left to right in the data table
NEOR.Stage.Inst.1Hour.0.Ccp-Rev
NEOR.Flow.Inst.1Hour.0.Ccp-Rev
NEOR.Volt-Battery Load.Inst.1Hour.0.Ccp-Rev

                            

All information presented herein is the property of the government of the United States of America and may be revised or deleted at any time without prior notice. Dissemination of this information without the expressed written consent of the Public Affairs Office, Tulsa District U.S. Army Corps of Engineers is strictly prohibited. These data are gathered electronically and, as presented, have NOT undergone any form of quality control. These data are NOT guaranteed to be valid or correct.